Shawnee, OK

8:52 AM CDT on April 18, 2015 (GMT -0500)
Shawnee Municipal | | Change Station
CLOSE
Current Station
Airport
Location: Shawnee,
Elevation: 1073 ft
Nearby Weather Stations

Elev 1073 ft 35.36 °N, 96.94 °W | Updated 17 minutes ago

Mostly Cloudy
Mostly Cloudy
61 °F
Feels Like 61 °F
N
0
Wind Variable Wind from North

Today
High -- | Low -- °F
--% Chance of Precip.
Yesterday
High -- | Low -- °F
Precip. -- in
6:51 AM 8:02 PM
Waning Crescent, 0% visible
Pressure 29.94 in
Visibility -9999.0 miles
Clouds Overcast 9000 ft
Dew Point 59 °F
Humidity 94%
Rainfall 0.10 in
Snow Depth Not available.
UV 0 out of 12
Pollen 8.60 out of 12
Air Quality Not available.
Flu Activity Regional
METAR KSNL 181335Z AUTO 00000KT OVC090 16/15 A2994 RMK AO2 PWINO

More Conditions Fewer Conditions

Pressure 29.94 in
Visibility -9999.0 miles
Clouds Overcast 9000 ft
Dew Point 59 °F
Humidity 94%
Rainfall 0.10 in
Snow Depth Not available.
UV 0 out of 12
Pollen 8.60 out of 12
Air Quality Not available.
Flu Activity Regional
METAR KSNL 181335Z AUTO 00000KT OVC090 16/15 A2994 RMK AO2 PWINO

More Conditions Fewer Conditions

10-Day Weather Forecast

Almanac

Astronomy

Apr. 18, 2015 Rise Set
Actual Time
Civil Twilight
Nautical Twilight
Astronomical Twilight
Moon
Length of Visible Light
Length of Day
Tomorrow will be .
, % of the Moon is Illuminated

Today's Extremes

State Highs State Lows

Community

WunderPhotos

Upload Photos

1,814,392 photos uploaded!

WunderBlogs® & News

Nearby

Air Quality

  Air Quality AQ Index Pollutant
Not available.

Snow Depth

Station Depth Elevation

Earthquake Activity

City Distance Mag. Time & Date
Minimum magnitude displayed is 2.5.

Coastal Water Temperatures

Place Temperature

Stations

Nearby Weather Stations

Station Location Temp. Windchill Dew Point Humidity Wind Precip. Elev Updated Type